Fort Payne, AL

6:38 AM CST on March 05, 2015 (GMT -0600)
Desoto Country Club | Change Station
CLOSE
Current Station
Personal Weather Station
Location: Fort Payne, AL
Elevation: 978 ft
Nearby Weather Stations
Active Advisory: Winter Storm Warning

Elev 978 ft 34.46 °N, 85.70 °W | Updated 3 minutes ago

Overcast
Overcast
37.0 °F
Feels Like 33 °F
N
4.7
Wind Variable Wind from WNW

Today
High -- | Low -- °F
--% Chance of Precip.
Yesterday
High -- | Low -- °F
Precip. -- in
6:07 AM 5:42 PM
Full, 100% visible
Pressure 29.98 in
Visibility 10.0 miles
Clouds Overcast 1300 ft
Windchill 33 °F
Dew Point 36 °F
Humidity 97%
Rainfall in
Snow Depth Not available.
UV 0 out of 12
Pollen .80 out of 12
Air Quality Not available.
Flu Activity Not available.
METAR K4A9 051215Z AUTO 34004KT 10SM OVC013 02/00 A2998 RMK AO2

More Conditions Fewer Conditions

Pressure 29.98 in
Visibility 10.0 miles
Clouds Overcast 1300 ft
Windchill 33 °F
Dew Point 36 °F
Humidity 97%
Rainfall in
Snow Depth Not available.
UV 0 out of 12
Pollen .80 out of 12
Air Quality Not available.
Flu Activity Not available.
METAR K4A9 051215Z AUTO 34004KT 10SM OVC013 02/00 A2998 RMK AO2

More Conditions Fewer Conditions

10-Day Weather Forecast

Almanac

Astronomy

Mar. 05, 2015 Rise Set
Actual Time
Civil Twilight
Nautical Twilight
Astronomical Twilight
Moon
Length of Visible Light
Length of Day
Tomorrow will be .
, % of the Moon is Illuminated

Today's Extremes

State Highs State Lows

Community

WunderPhotos

Upload Photos

1,802,736 photos uploaded!

WunderBlogs® & News

Nearby

Air Quality

  Air Quality AQ Index Pollutant
Not available.

Snow Depth

Station Depth Elevation

Earthquake Activity

City Distance Mag. Time & Date
Minimum magnitude displayed is 2.5.

Coastal Water Temperatures

Place Temperature

Nearby Weather Stations

Winter Storm Warning
Statement as of 3:33 AM CST on March 05, 2015

... Winter Storm Warning remains in effect until 3 PM CST this
afternoon...

* timing and areas affected... rain is expected to transition to
freezing rain through 6 am Thursday morning... and then to freezing
rain and sleet in the late morning across much of the Tennessee
Valley. This includes the counties of Lauderdale... Colbert...
Lawrence... Limestone... Madison... Morgan... DeKalb... Jackson...
Marshall and Cullman counties in northern Alabama... and Lincoln...
Moore... and Franklin counties of southern middle Tennessee.

* Accumulations... ice accumulations between one quarter to three
tenths of an inch... and sleet and snow accumulations of around a
half an inch are likely.

* Impacts... widespread hazardous traveling conditions are likely
across northern Alabama due to the ice and sleet accumulations
on roads and bridges.

Precautionary/preparedness actions...

A Winter Storm Warning means significant amounts of ice... sleet...
and snow are expected or occurring. Strong winds are also
possible. This will make travel very hazardous or impossible.